createdAt,value
2019-05-21T00:02:20.574Z,35.88
2019-05-21T00:04:47.811Z,36.00
2019-05-21T00:07:15.120Z,36.33
2019-05-21T00:09:42.349Z,34.25
2019-05-21T00:12:09.590Z,34.30
2019-05-21T00:14:37.095Z,33.05
2019-05-21T00:17:04.491Z,35.10
2019-05-21T00:19:31.794Z,33.85
2019-05-21T00:21:59.109Z,35.65
2019-05-21T00:24:26.417Z,34.38
2019-05-21T00:26:53.697Z,35.20
2019-05-21T00:29:57.996Z,33.73
2019-05-21T00:33:02.259Z,33.28
2019-05-21T00:36:06.278Z,34.98
2019-05-21T00:39:09.921Z,32.78
2019-05-21T00:42:04.760Z,33.58
2019-05-21T00:44:35.496Z,34.25
2019-05-21T00:47:04.405Z,32.53
2019-05-21T00:49:31.764Z,35.08
2019-05-21T00:52:06.939Z,30.82
2019-05-21T00:54:28.347Z,31.50
2019-05-21T00:56:55.667Z,31.20
2019-05-21T00:59:22.924Z,30.12
2019-05-21T01:01:50.274Z,31.90
2019-05-21T01:04:17.748Z,31.87
2019-05-21T01:06:45.016Z,30.77
2019-05-21T01:09:12.304Z,32.03
2019-05-21T01:11:39.620Z,31.93
2019-05-21T01:14:06.849Z,32.13
2019-05-21T01:16:34.142Z,32.30
2019-05-21T01:19:01.488Z,31.70
2019-05-21T01:21:28.725Z,32.17
2019-05-21T01:23:55.988Z,32.73
2019-05-21T01:26:23.265Z,33.15
2019-05-21T01:28:50.530Z,32.42
2019-05-21T01:31:17.757Z,30.57
2019-05-21T01:33:45.012Z,32.58
2019-05-21T01:36:12.250Z,29.52
2019-05-21T01:38:39.587Z,31.77
2019-05-21T01:41:06.835Z,30.15
2019-05-21T01:43:34.125Z,33.42
2019-05-21T01:46:01.317Z,30.82
2019-05-21T01:48:28.636Z,30.30
2019-05-21T01:50:55.896Z,32.70
2019-05-21T01:53:23.227Z,32.95
2019-05-21T01:55:50.447Z,32.93
2019-05-21T01:58:17.754Z,31.97
2019-05-21T02:00:45.092Z,33.10
2019-05-21T02:03:12.348Z,33.75
2019-05-21T02:05:39.607Z,31.57
2019-05-21T02:08:06.909Z,31.85
2019-05-21T02:10:34.156Z,29.87
2019-05-21T02:13:01.411Z,33.58
2019-05-21T02:15:28.684Z,31.42
2019-05-21T02:17:55.952Z,32.58
2019-05-21T02:20:23.224Z,33.02
2019-05-21T02:22:50.456Z,33.38
2019-05-21T02:25:18.093Z,32.42
2019-05-21T02:27:45.460Z,33.02
2019-05-21T02:30:13.311Z,33.95
2019-05-21T02:32:40.964Z,32.30
2019-05-21T02:35:08.369Z,33.58
2019-05-21T02:37:36.079Z,32.58
2019-05-21T02:40:04.737Z,33.25
2019-05-21T02:42:32.040Z,32.78
2019-05-21T02:44:59.361Z,31.02
2019-05-21T02:47:26.591Z,32.98
2019-05-21T02:49:53.864Z,32.48
2019-05-21T02:52:21.158Z,32.00
2019-05-21T02:54:48.383Z,32.93
2019-05-21T02:57:15.674Z,31.62
2019-05-21T02:59:44.739Z,32.50
2019-05-21T03:02:22.865Z,32.85
2019-05-21T03:04:50.124Z,32.60
2019-05-21T03:07:17.350Z,33.45
2019-05-21T03:09:45.808Z,33.53
2019-05-21T03:12:13.332Z,30.70
2019-05-21T03:14:40.590Z,30.10
2019-05-21T03:17:07.835Z,31.30
2019-05-21T03:19:35.173Z,31.25
2019-05-21T03:22:02.484Z,33.05
2019-05-21T03:24:29.796Z,29.52
2019-05-21T03:26:57.086Z,32.28
2019-05-21T03:29:24.321Z,30.27
2019-05-21T03:31:51.646Z,32.03
2019-05-21T03:34:19.583Z,31.30
2019-05-21T03:36:47.017Z,32.98
2019-05-21T03:39:18.886Z,31.25
2019-05-21T03:41:43.545Z,33.95
2019-05-21T03:44:10.807Z,33.55
2019-05-21T03:46:38.090Z,30.55
2019-05-21T03:49:05.330Z,33.35
2019-05-21T03:51:32.625Z,31.42
2019-05-21T03:53:59.872Z,32.95
2019-05-21T03:56:27.109Z,33.67
2019-05-21T03:58:54.380Z,34.63
2019-05-21T04:01:21.634Z,32.53
2019-05-21T04:03:48.896Z,32.05
2019-05-21T04:06:16.129Z,31.77
2019-05-21T04:08:43.471Z,29.75
2019-05-21T04:11:10.723Z,31.62
2019-05-21T04:13:38.042Z,30.50
2019-05-21T04:16:17.375Z,31.85
2019-05-21T04:19:05.933Z,29.77
2019-05-21T04:21:33.202Z,28.70
2019-05-21T04:24:00.619Z,29.00
2019-05-21T04:26:28.360Z,28.98
2019-05-21T04:28:55.728Z,30.12
2019-05-21T04:31:23.075Z,30.75
2019-05-21T04:33:50.306Z,29.60
2019-05-21T04:36:17.598Z,29.90
2019-05-21T04:38:44.845Z,26.93
2019-05-21T04:41:12.132Z,28.95
2019-05-21T04:43:39.405Z,28.75
2019-05-21T04:46:06.668Z,29.72
2019-05-21T04:48:33.915Z,27.35
2019-05-21T04:51:01.235Z,27.82
2019-05-21T04:53:28.544Z,28.00
2019-05-21T04:55:55.756Z,27.40
2019-05-21T04:58:23.027Z,32.00
2019-05-21T05:00:50.253Z,27.77
2019-05-21T05:03:17.549Z,30.77
2019-05-21T05:05:44.796Z,29.67
2019-05-21T05:08:12.077Z,28.95
2019-05-21T05:10:39.854Z,30.57
2019-05-21T05:13:07.203Z,31.48
2019-05-21T05:15:34.449Z,32.98
2019-05-21T05:18:01.783Z,31.50
2019-05-21T05:20:29.025Z,31.30
2019-05-21T05:22:56.279Z,31.07
2019-05-21T05:25:23.554Z,28.23
2019-05-21T05:27:50.760Z,30.05
2019-05-21T05:30:18.039Z,28.62
2019-05-21T05:32:45.387Z,30.27
2019-05-21T05:35:12.784Z,28.00
2019-05-21T05:37:47.872Z,28.10
2019-05-21T05:40:10.632Z,30.35
2019-05-21T05:42:37.977Z,27.55
2019-05-21T05:45:06.764Z,26.00
2019-05-21T05:47:34.127Z,26.20
2019-05-21T05:50:10.668Z,28.00
2019-05-21T05:52:37.903Z,26.45
2019-05-21T05:55:05.308Z,28.40
2019-05-21T05:57:32.561Z,24.55
2019-05-21T05:59:59.856Z,27.80
2019-05-21T06:02:27.088Z,25.32
2019-05-21T06:04:54.433Z,26.25
2019-05-21T06:07:21.673Z,25.20
2019-05-21T06:09:48.934Z,23.83
2019-05-21T06:12:16.233Z,23.70
2019-05-21T06:14:43.476Z,23.75
2019-05-21T06:17:12.165Z,21.25
2019-05-21T06:19:39.805Z,21.70
2019-05-21T06:22:07.166Z,22.80
2019-05-21T06:24:34.420Z,24.02
2019-05-21T06:27:01.952Z,22.95
2019-05-21T06:29:29.219Z,24.05
2019-05-21T06:31:56.465Z,22.30
2019-05-21T06:34:23.752Z,24.80
2019-05-21T06:36:51.280Z,24.67
2019-05-21T06:39:18.568Z,25.40
2019-05-21T06:41:45.855Z,22.35
2019-05-21T06:44:13.132Z,22.82
2019-05-21T06:46:40.456Z,24.67
2019-05-21T06:49:07.687Z,24.10
2019-05-21T06:51:34.912Z,25.27
2019-05-21T06:54:02.564Z,23.83
2019-05-21T06:56:30.435Z,24.20
2019-05-21T06:58:57.697Z,25.12
2019-05-21T07:01:28.834Z,24.15
2019-05-21T07:03:54.157Z,23.42
2019-05-21T07:06:21.475Z,23.42
2019-05-21T07:08:48.767Z,22.77
2019-05-21T07:11:16.008Z,24.55
2019-05-21T07:13:43.246Z,22.52
2019-05-21T07:16:10.595Z,26.10
2019-05-21T07:18:41.229Z,23.80
2019-05-21T07:21:07.006Z,23.20
2019-05-21T07:23:34.343Z,21.30
2019-05-21T07:26:01.649Z,23.83
2019-05-21T07:28:28.906Z,17.00
2019-05-21T07:30:56.151Z,23.18
2019-05-21T07:33:23.423Z,25.43
2019-05-21T07:35:50.665Z,25.12
2019-05-21T07:38:18.044Z,29.05
2019-05-21T07:40:45.337Z,26.62
2019-05-21T07:43:12.634Z,25.90
2019-05-21T07:45:39.889Z,26.00
2019-05-21T07:48:07.136Z,28.02
2019-05-21T07:50:34.407Z,24.72
2019-05-21T07:53:01.659Z,26.48
2019-05-21T07:55:28.929Z,27.02
2019-05-21T07:57:56.159Z,24.40
2019-05-21T08:00:23.463Z,25.17
2019-05-21T08:02:50.721Z,27.85
2019-05-21T08:05:17.987Z,25.43
2019-05-21T08:07:45.237Z,25.35
2019-05-21T08:10:12.587Z,27.90
2019-05-21T08:12:40.786Z,27.98
2019-05-21T08:15:09.344Z,26.02
2019-05-21T08:17:36.615Z,25.40
2019-05-21T08:20:09.829Z,25.20
2019-05-21T08:22:36.104Z,26.23
2019-05-21T08:25:04.099Z,26.10
2019-05-21T08:27:31.428Z,23.40
2019-05-21T08:29:58.741Z,25.77
2019-05-21T08:32:26.052Z,26.17
2019-05-21T08:34:53.436Z,26.77
2019-05-21T08:37:20.644Z,24.55
2019-05-21T08:39:47.965Z,26.23
2019-05-21T08:42:15.210Z,27.10
2019-05-21T08:44:42.565Z,23.75
2019-05-21T08:47:09.934Z,24.30
2019-05-21T08:49:37.171Z,25.08
2019-05-21T08:52:04.716Z,25.75
2019-05-21T08:54:50.652Z,25.37
2019-05-21T08:57:18.308Z,26.35
2019-05-21T08:59:45.794Z,27.67
2019-05-21T09:02:12.973Z,25.97
2019-05-21T09:05:18.285Z,24.23
2019-05-21T09:07:09.531Z,26.70
2019-05-21T09:09:49.373Z,25.17
2019-05-21T09:12:05.886Z,26.75
2019-05-21T09:14:33.205Z,27.50
2019-05-21T09:17:00.479Z,26.68
2019-05-21T09:19:27.716Z,27.70
2019-05-21T09:21:56.343Z,24.40
2019-05-21T09:24:23.815Z,24.47
2019-05-21T09:26:51.073Z,25.62
2019-05-21T09:29:18.372Z,24.32
2019-05-21T09:31:45.627Z,24.05
2019-05-21T09:34:12.869Z,26.10
2019-05-21T09:36:40.140Z,28.77
2019-05-21T09:39:07.383Z,24.52
2019-05-21T09:41:34.660Z,23.50
2019-05-21T09:44:02.212Z,23.32
2019-05-21T09:46:29.529Z,22.67
2019-05-21T09:48:56.791Z,24.02
2019-05-21T09:51:24.177Z,25.23
2019-05-21T09:53:51.450Z,24.30
2019-05-21T09:56:33.855Z,26.65
2019-05-21T09:59:09.988Z,23.60
2019-05-21T10:01:48.026Z,23.12
2019-05-21T10:04:14.736Z,25.68
2019-05-21T10:06:41.976Z,24.82
2019-05-21T10:09:13.183Z,23.32
2019-05-21T10:11:40.443Z,21.37
2019-05-21T10:14:07.666Z,25.80
2019-05-21T10:16:34.957Z,23.90
2019-05-21T10:19:02.191Z,25.43
2019-05-21T10:21:29.448Z,24.23
2019-05-21T10:23:56.696Z,25.70
2019-05-21T10:26:24.300Z,25.50
2019-05-21T10:28:51.700Z,24.65
2019-05-21T10:31:18.954Z,23.50
2019-05-21T10:33:46.160Z,19.42
2019-05-21T10:36:13.489Z,23.65
2019-05-21T10:38:40.750Z,23.02
2019-05-21T10:41:08.078Z,22.58
2019-05-21T10:43:35.340Z,22.95
2019-05-21T10:46:02.979Z,23.10
2019-05-21T10:48:30.417Z,25.43
2019-05-21T10:50:57.678Z,25.48
2019-05-21T10:53:24.907Z,23.40
2019-05-21T10:55:52.197Z,19.60
2019-05-21T10:58:19.453Z,26.07
2019-05-21T11:00:47.771Z,23.00
2019-05-21T11:03:18.796Z,22.98
2019-05-21T11:05:49.465Z,21.45
2019-05-21T11:08:25.237Z,23.87
2019-05-21T11:10:46.179Z,24.23
2019-05-21T11:13:13.440Z,26.40
2019-05-21T11:15:40.951Z,21.97
2019-05-21T11:18:10.930Z,19.73
2019-05-21T11:20:37.596Z,20.70
2019-05-21T11:23:04.859Z,19.82
2019-05-21T11:25:32.165Z,20.00
2019-05-21T11:27:59.443Z,15.38
2019-05-21T11:30:26.728Z,22.30
2019-05-21T11:32:53.988Z,20.10
2019-05-21T11:35:21.249Z,19.32
2019-05-21T11:37:48.473Z,19.50
2019-05-21T11:40:16.418Z,18.50
2019-05-21T11:42:43.676Z,19.05
2019-05-21T11:45:11.241Z,20.48
2019-05-21T11:47:38.509Z,20.00
2019-05-21T11:50:06.277Z,19.52
2019-05-21T11:52:33.895Z,17.35
2019-05-21T11:55:01.237Z,18.35
2019-05-21T11:57:28.532Z,19.65
2019-05-21T11:59:55.803Z,21.07
2019-05-21T12:02:23.086Z,17.42
2019-05-21T12:04:50.724Z,20.60
2019-05-21T12:07:17.944Z,21.25
2019-05-21T12:09:45.285Z,21.77
2019-05-21T12:12:12.548Z,21.60
2019-05-21T12:14:39.909Z,22.80
2019-05-21T12:17:07.140Z,21.57
2019-05-21T12:19:34.341Z,20.92
2019-05-21T12:22:01.553Z,17.90
2019-05-21T12:24:28.877Z,20.10
2019-05-21T12:26:56.110Z,21.65
2019-05-21T12:29:23.429Z,21.07
2019-05-21T12:31:50.740Z,20.15
2019-05-21T12:34:18.097Z,20.05
2019-05-21T12:36:45.320Z,21.40
2019-05-21T12:39:14.667Z,20.20
2019-05-21T12:41:41.806Z,20.70
2019-05-21T12:44:09.158Z,19.77
2019-05-21T12:46:36.404Z,18.82
2019-05-21T12:49:03.676Z,20.10
2019-05-21T12:51:30.893Z,20.72
2019-05-21T12:53:58.092Z,20.37
2019-05-21T12:56:25.374Z,21.80
2019-05-21T12:58:52.605Z,21.55
2019-05-21T13:01:19.932Z,22.48
2019-05-21T13:03:47.211Z,20.15
2019-05-21T13:06:14.445Z,20.32
2019-05-21T13:08:41.779Z,19.62
2019-05-21T13:11:09.042Z,21.55
2019-05-21T13:13:36.325Z,19.48
2019-05-21T13:16:03.776Z,20.17
2019-05-21T13:18:31.187Z,18.65
2019-05-21T13:20:58.483Z,19.42
2019-05-21T13:23:25.953Z,21.27
2019-05-21T13:25:53.312Z,22.82
2019-05-21T13:28:20.558Z,21.87
2019-05-21T13:30:47.816Z,19.70
2019-05-21T13:33:15.056Z,19.70
2019-05-21T13:35:42.648Z,19.62
2019-05-21T13:38:13.387Z,19.12
2019-05-21T13:40:39.195Z,20.12
2019-05-21T13:43:06.448Z,19.32
2019-05-21T13:45:33.806Z,23.47
2019-05-21T13:48:01.049Z,20.40
2019-05-21T13:50:28.336Z,19.45
2019-05-21T13:52:55.644Z,21.27
2019-05-21T13:55:22.944Z,18.20
2019-05-21T13:57:50.217Z,21.07
2019-05-21T14:00:24.077Z,20.45
2019-05-21T14:02:51.462Z,20.85
2019-05-21T14:05:18.727Z,18.62
2019-05-21T14:07:46.028Z,19.20
2019-05-21T14:10:18.252Z,19.32
2019-05-21T14:12:42.447Z,17.42
2019-05-21T14:15:12.010Z,17.60
2019-05-21T14:17:39.356Z,16.90
2019-05-21T14:20:07.167Z,17.30
2019-05-21T14:22:36.611Z,17.42
2019-05-21T14:25:03.763Z,19.15
2019-05-21T14:27:43.645Z,20.23
2019-05-21T14:30:00.229Z,20.43
2019-05-21T14:32:27.636Z,19.98
2019-05-21T14:35:01.507Z,18.60
2019-05-21T14:37:24.203Z,20.48
2019-05-21T14:39:51.641Z,20.25
2019-05-21T14:42:18.948Z,20.27
2019-05-21T14:44:46.288Z,21.62
2019-05-21T14:47:13.561Z,20.25
2019-05-21T14:49:40.826Z,19.90
2019-05-21T14:52:09.311Z,19.95
2019-05-21T14:54:36.706Z,20.80
2019-05-21T14:57:09.438Z,23.22
2019-05-21T14:59:36.743Z,21.62
2019-05-21T15:02:04.308Z,21.25
2019-05-21T15:04:31.928Z,20.85
2019-05-21T15:06:59.465Z,20.80
2019-05-21T15:09:26.799Z,18.98
2019-05-21T15:11:54.064Z,20.68
2019-05-21T15:14:21.308Z,23.45
2019-05-21T15:16:48.577Z,21.57
2019-05-21T15:19:15.824Z,22.05
2019-05-21T15:21:47.171Z,20.27
2019-05-21T15:24:14.852Z,21.95
2019-05-21T15:26:42.161Z,19.62
2019-05-21T15:29:09.400Z,20.32
2019-05-21T15:31:36.684Z,21.68
2019-05-21T15:34:04.149Z,21.00
2019-05-21T15:36:31.505Z,22.15
2019-05-21T15:38:58.811Z,21.00
2019-05-21T15:41:26.196Z,19.73
2019-05-21T15:43:53.476Z,19.37
2019-05-21T15:46:20.820Z,17.37
2019-05-21T15:48:48.036Z,13.80
2019-05-21T15:51:15.298Z,14.43
2019-05-21T15:53:42.810Z,11.70
2019-05-21T15:56:10.251Z,10.00
2019-05-21T15:58:37.633Z,11.48
2019-05-21T16:01:04.920Z,10.72
2019-05-21T16:03:32.164Z,10.05
2019-05-21T16:05:59.424Z,10.03
2019-05-21T16:08:26.752Z,12.00
2019-05-21T16:10:54.443Z,13.68
2019-05-21T16:13:21.717Z,13.28
2019-05-21T16:15:48.944Z,14.20
2019-05-21T16:18:16.213Z,14.20
2019-05-21T16:20:43.465Z,12.95
2019-05-21T16:23:10.720Z,13.75
2019-05-21T16:25:37.936Z,12.13
2019-05-21T16:28:05.190Z,12.50
2019-05-21T16:30:32.515Z,11.75
2019-05-21T16:32:59.756Z,10.48
2019-05-21T16:35:27.495Z,11.30
2019-05-21T16:37:54.792Z,11.03
2019-05-21T16:40:22.120Z,11.28
2019-05-21T16:42:49.378Z,10.65
2019-05-21T16:45:16.818Z,9.78
2019-05-21T16:47:46.515Z,11.18
2019-05-21T16:50:13.844Z,10.50
2019-05-21T16:52:41.187Z,12.15
2019-05-21T16:55:08.767Z,12.65
2019-05-21T16:57:36.049Z,11.93
2019-05-21T17:00:05.100Z,12.18
2019-05-21T17:02:32.354Z,12.43
2019-05-21T17:04:59.596Z,13.25
2019-05-21T17:07:26.929Z,14.43
2019-05-21T17:09:54.156Z,14.43
2019-05-21T17:12:21.387Z,15.05
2019-05-21T17:14:50.039Z,15.68
2019-05-21T17:17:17.368Z,16.48
2019-05-21T17:19:44.636Z,15.25
2019-05-21T17:22:11.867Z,16.42
2019-05-21T17:24:39.180Z,17.73
2019-05-21T17:27:06.412Z,17.95
2019-05-21T17:29:33.769Z,16.82
2019-05-21T17:32:01.156Z,18.07
2019-05-21T17:34:28.460Z,17.48
2019-05-21T17:36:55.721Z,17.95
2019-05-21T17:39:23.222Z,18.60
2019-05-21T17:41:50.499Z,21.35
2019-05-21T17:44:17.759Z,22.80
2019-05-21T17:46:45.023Z,21.42
2019-05-21T17:49:12.428Z,22.35
2019-05-21T17:51:39.711Z,24.43
2019-05-21T17:54:06.964Z,21.20
2019-05-21T17:56:34.232Z,21.82
2019-05-21T17:59:01.515Z,21.00
2019-05-21T18:01:28.888Z,21.73
2019-05-21T18:03:56.120Z,19.57
2019-05-21T18:06:23.975Z,21.50
2019-05-21T18:08:51.593Z,20.08
2019-05-21T18:11:18.839Z,20.62
2019-05-21T18:13:48.053Z,20.45
2019-05-21T18:16:15.773Z,21.82
2019-05-21T18:18:43.463Z,21.20
2019-05-21T18:21:11.321Z,20.45
2019-05-21T18:23:38.963Z,22.62
2019-05-21T18:26:06.468Z,23.30
2019-05-21T18:28:34.150Z,23.12
2019-05-21T18:31:02.067Z,23.50
2019-05-21T18:33:29.337Z,23.18
2019-05-21T18:35:56.624Z,22.67
2019-05-21T18:38:24.013Z,22.32
2019-05-21T18:40:51.375Z,22.52
2019-05-21T18:43:18.653Z,23.20
2019-05-21T18:45:45.901Z,22.02
2019-05-21T18:48:13.146Z,22.17
2019-05-21T18:50:40.367Z,22.80
2019-05-21T18:53:07.696Z,22.60
2019-05-21T18:55:35.301Z,22.87
2019-05-21T18:58:02.668Z,23.15
2019-05-21T19:00:30.037Z,24.25
2019-05-21T19:02:57.336Z,23.52
2019-05-21T19:05:24.604Z,23.85
2019-05-21T19:07:51.890Z,24.63
2019-05-21T19:10:19.213Z,25.88
2019-05-21T19:12:46.493Z,21.27
2019-05-21T19:15:13.845Z,20.72
2019-05-21T19:17:41.316Z,21.37
2019-05-21T19:20:09.071Z,22.45
2019-05-21T19:22:36.349Z,20.92
2019-05-21T19:25:04.421Z,19.57
2019-05-21T19:27:31.753Z,21.33
2019-05-21T19:29:59.016Z,20.80
2019-05-21T19:32:26.439Z,21.30
2019-05-21T19:34:53.781Z,21.07
2019-05-21T19:37:21.045Z,22.32
2019-05-21T19:39:48.352Z,21.80
2019-05-21T19:42:15.608Z,21.82
2019-05-21T19:44:42.883Z,21.07
2019-05-21T19:47:10.169Z,23.80
2019-05-21T19:49:37.435Z,24.85
2019-05-21T19:52:04.701Z,23.55
2019-05-21T19:54:31.972Z,26.00
2019-05-21T19:56:59.217Z,24.65
2019-05-21T19:59:26.544Z,25.10
2019-05-21T20:01:55.496Z,25.92
2019-05-21T20:04:23.065Z,25.90
2019-05-21T20:06:50.466Z,25.77
2019-05-21T20:09:20.362Z,26.50
2019-05-21T20:11:47.610Z,28.17
2019-05-21T20:14:14.906Z,25.75
2019-05-21T20:16:42.311Z,26.77
2019-05-21T20:19:10.805Z,26.48
2019-05-21T20:21:38.848Z,26.75
2019-05-21T20:24:06.239Z,27.25
2019-05-21T20:26:35.606Z,25.70
2019-05-21T20:29:03.658Z,25.82
2019-05-21T20:31:30.873Z,25.60
2019-05-21T20:33:58.305Z,25.43
2019-05-21T20:36:26.114Z,27.50
2019-05-21T20:38:53.438Z,28.73
2019-05-21T20:41:22.110Z,26.62
2019-05-21T20:43:58.518Z,28.73
2019-05-21T20:46:19.748Z,28.50
2019-05-21T20:48:47.918Z,27.62
2019-05-21T20:51:15.568Z,28.42
2019-05-21T20:53:44.432Z,30.05
2019-05-21T20:56:12.222Z,31.57
2019-05-21T20:58:39.680Z,30.88
2019-05-21T21:01:07.840Z,31.33
2019-05-21T21:03:35.804Z,33.70
2019-05-21T21:06:04.441Z,33.18
2019-05-21T21:08:35.545Z,34.67
2019-05-21T21:11:04.477Z,33.30
2019-05-21T21:13:31.908Z,33.55
2019-05-21T21:15:59.168Z,32.13
2019-05-21T21:18:26.389Z,32.67
2019-05-21T21:20:53.658Z,32.45
2019-05-21T21:23:24.173Z,31.60
2019-05-21T21:25:51.748Z,31.68
2019-05-21T21:28:19.225Z,35.50
2019-05-21T21:30:46.920Z,36.58
2019-05-21T21:33:14.444Z,34.80
2019-05-21T21:35:43.063Z,37.28
2019-05-21T21:38:10.571Z,37.10
2019-05-21T21:40:38.231Z,34.27
2019-05-21T21:43:07.960Z,34.92
2019-05-21T21:45:34.664Z,35.05
2019-05-21T21:48:02.023Z,36.80
2019-05-21T21:50:29.231Z,38.75
2019-05-21T21:52:56.593Z,37.65
2019-05-21T21:55:23.840Z,36.95
2019-05-21T21:57:51.822Z,38.02
2019-05-21T22:01:34.292Z,38.55
2019-05-21T22:04:05.292Z,38.78
2019-05-21T22:09:04.317Z,36.83
2019-05-21T22:11:32.073Z,39.83
2019-05-21T22:13:59.932Z,41.68
2019-05-21T22:16:27.193Z,38.80
2019-05-21T22:18:54.552Z,39.70
2019-05-21T22:21:21.902Z,39.27
2019-05-21T22:23:50.451Z,39.83
2019-05-21T22:26:18.297Z,39.10
2019-05-21T22:28:46.027Z,41.77
2019-05-21T22:31:13.312Z,41.53
2019-05-21T22:33:40.563Z,39.40
2019-05-21T22:36:07.875Z,39.25
2019-05-21T22:38:35.115Z,39.95
2019-05-21T22:41:02.431Z,42.27
2019-05-21T22:43:29.733Z,41.02
2019-05-21T22:45:56.960Z,40.28
2019-05-21T22:48:24.343Z,40.70
2019-05-21T22:50:51.411Z,40.92
2019-05-21T22:53:18.588Z,40.35
2019-05-21T22:55:47.259Z,41.45
2019-05-21T22:58:14.488Z,41.30
2019-05-21T23:00:41.961Z,41.58
2019-05-21T23:03:09.217Z,41.90
2019-05-21T23:05:36.477Z,43.15
2019-05-21T23:08:04.569Z,42.23
2019-05-21T23:10:32.048Z,42.83
2019-05-21T23:12:59.521Z,41.35
2019-05-21T23:15:27.753Z,41.18
2019-05-21T23:17:55.593Z,41.88
2019-05-21T23:20:27.164Z,42.62
2019-05-21T23:22:56.348Z,41.70
2019-05-21T23:25:24.501Z,41.83
2019-05-21T23:27:52.249Z,43.15
2019-05-21T23:30:19.524Z,42.20
2019-05-21T23:32:46.742Z,42.55
2019-05-21T23:35:15.379Z,41.90
2019-05-21T23:37:43.928Z,41.18
2019-05-21T23:40:12.138Z,41.60
2019-05-21T23:42:39.414Z,42.20
2019-05-21T23:45:08.269Z,43.65
2019-05-21T23:47:36.161Z,42.58
2019-05-21T23:50:03.819Z,40.90
2019-05-21T23:52:32.047Z,40.52
2019-05-21T23:54:59.424Z,42.23
2019-05-21T23:57:27.555Z,41.83
2019-05-21T23:59:55.369Z,42.05
